CheckWX is a tool to help pilots better visualize weather data.  It is not intended as a substitute for an official pre-flight weather briefing.

17:34:39 UTC

KACV METAR
California Redwood Coast-Humboldt County Airport
Arcata/Eureka, California, USA
Current

42 mins ago

KACV 241653Z AUTO 09003KT 10SM CLR 11/06 A3017 RMK AO2 SLP222 T01110061
Observed
Mar-24 @ 16:53 UTC
Wind
  • 090° at 3 KTS
Visibility
10 SM
Flight Rules
VFR
Cloud Levels
  • Clear skies
Temperature
11°C / 52°F
Dewpoint
C / 43°F
Humidity
72%
Altimeter
30.17" Hg
Pressure
1022.2 hPa
Previous

2 hours ago

KACV 241553Z AUTO 00000KT 10SM CLR 08/05 A3018 RMK AO2 SLP226 T00780050
Observed
Mar-24 @ 15:53 UTC
Visibility
10 SM
Flight Rules
VFR
Cloud Levels
  • Clear skies
Temperature
C / 46°F
Dewpoint
C / 41°F
Humidity
82%
Altimeter
30.18" Hg
Pressure
1022.6 hPa
Previous

3 hours ago

KACV 241453Z AUTO 00000KT 10SM CLR 03/02 A3018 RMK AO2 SLP227 T00280022 53003
Observed
Mar-24 @ 14:53 UTC
Visibility
10 SM
Flight Rules
VFR
Cloud Levels
  • Clear skies
Temperature
C / 37°F
Dewpoint
C / 36°F
Humidity
93%
Altimeter
30.18" Hg
Pressure
1022.7 hPa